Cassiopeia Leader — 7JZI — position and weather

sailwx.info

Track history (hours):
 
Tides and Currents Weather Stations Pressure Air Temp Water Temp Dewpoint Dewpoint Depression Visibility Wind Speed Wind Dir Waves Ship Positions

Cassiopeia Leader

Last reported at 2017-Nov-20 00:30 UTC. Time now 2017-Dec-11 11:19 UTC.
Position N 30°21' W 081°05'.
Warning: this ship's position is 21 days out of date.

Length 200 m; draft 8.8 m.

Type: Cargo ship. MMSI: 431013000.

Date/timePositionNaut miles runAvg speedWind from/ knotsBaromVisibWave heightAir tempDewpointWater temp
2017-Nov-20 00:30N 30°21' W 081°05'5 9.3
2017-Nov-20 00:00N 30°21' W 080°59'5 9.5
2017-Nov-19 23:30N 30°20' W 080°54'5 9.3
2017-Nov-19 23:00N 30°21' W 080°49'1 1.9
2017-Nov-19 22:30N 30°21' W 080°48'0 0.8
2017-Nov-19 22:00N 30°22' W 080°47'46113.1
2017-Nov-18 10:56N 36°49' W 075°46'4 9.3
2017-Nov-18 10:30N 36°51' W 075°51'5 9.1
2017-Nov-18 10:00N 36°54' W 075°55'5 9.3
2017-Nov-18 09:30N 36°57' W 075°60'612.3
2017-Nov-18 09:01N 37°02' W 076°04'917.9
2017-Nov-18 08:29N 37°10' W 076°09'9116.9
2017-Nov-18 03:07N 38°40' W 076°25'318.6
2017-Nov-18 02:58N 38°43' W 076°26'818.2
2017-Nov-18 02:30N 38°51' W 076°24'816.4
2017-Nov-18 02:00N 38°59' W 076°23'713.9
2017-Nov-18 01:30N 39°06' W 076°24'611.7
2017-Nov-18 01:01N 39°11' W 076°27'5 9.6
2017-Nov-18 00:31N 39°14' W 076°32'1 2.5
2017-Nov-17 23:58N 39°15' W 076°32'0 0.0
2017-Nov-17 23:28N 39°15' W 076°32'0 0.0
2017-Nov-17 22:58N 39°15' W 076°32'0 0.0
2017-Nov-17 22:28N 39°15' W 076°32'0 0.0
2017-Nov-17 21:58N 39°15' W 076°32'0 0.0
2017-Nov-17 21:28N 39°15' W 076°32'0 0.0
2017-Nov-17 20:58N 39°15' W 076°32'0 0.0
2017-Nov-17 20:28N 39°15' W 076°32'0 0.0
2017-Nov-17 19:58N 39°15' W 076°32'0 0.0
2017-Nov-17 19:25N 39°15' W 076°32'0 0.0
2017-Nov-17 18:58N 39°15' W 076°32'0 0.0
2017-Nov-17 18:28N 39°15' W 076°32'0 0.0
2017-Nov-17 17:58N 39°15' W 076°32'0 0.0
2017-Nov-17 17:28N 39°15' W 076°32'0 0.0
2017-Nov-17 16:58N 39°15' W 076°32'0 0.0
2017-Nov-17 16:28N 39°15' W 076°32'0 0.0
2017-Nov-17 15:58N 39°15' W 076°32'0 0.0
2017-Nov-17 15:28N 39°15' W 076°32'0 0.0
2017-Nov-17 14:58N 39°15' W 076°32'0 0.0
2017-Nov-17 14:28N 39°15' W 076°32'0 0.0
2017-Nov-17 13:58N 39°15' W 076°32'0 0.0
2017-Nov-17 13:28N 39°15' W 076°32'0 0.0
2017-Nov-17 12:58N 39°15' W 076°32'0 0.0
2017-Nov-17 12:28N 39°15' W 076°32'0 0.0
2017-Nov-17 11:58N 39°15' W 076°32'0 0.0
2017-Nov-17 11:28N 39°15' W 076°32'0 0.0
2017-Nov-17 10:58N 39°15' W 076°32'0 0.0
2017-Nov-17 10:28N 39°15' W 076°32'0 0.0
2017-Nov-17 09:58N 39°15' W 076°32'0 0.0
2017-Nov-17 09:28N 39°15' W 076°32'0 0.0
2017-Nov-17 08:58N 39°15' W 076°32'0 0.0
2017-Nov-17 08:28N 39°15' W 076°32'0 0.0
2017-Nov-17 07:58N 39°15' W 076°32'0 0.0
2017-Nov-17 07:28N 39°15' W 076°32'0 0.0
2017-Nov-17 06:58N 39°15' W 076°32'0 0.0
2017-Nov-17 06:28N 39°15' W 076°32'0 0.0
2017-Nov-17 05:58N 39°15' W 076°32'0 0.0
2017-Nov-17 05:28N 39°15' W 076°32'0 0.0
2017-Nov-17 04:58N 39°15' W 076°32'0 0.0
2017-Nov-17 04:28N 39°15' W 076°32'0 0.0
2017-Nov-17 03:58N 39°15' W 076°32'0 0.0
2017-Nov-17 03:28N 39°15' W 076°32'0 0.0
2017-Nov-17 02:58N 39°15' W 076°32'0 0.0
2017-Nov-17 02:25N 39°15' W 076°32'0 0.0
2017-Nov-17 01:31N 39°15' W 076°32'0 0.0
2017-Nov-17 01:10N 39°15' W 076°32'0 0.7
2017-Nov-17 01:00N 39°15' W 076°32'2 4.8
2017-Nov-17 00:31N 39°13' W 076°31'4 7.5
2017-Nov-17 00:00N 39°11' W 076°27'510.4
2017-Nov-16 23:30N 39°09' W 076°21'3 6.9
2017-Nov-16 23:00N 39°11' W 076°17'4 8.2
2017-Nov-16 22:30N 39°14' W 076°14'5 9.8
2017-Nov-16 22:01N 39°19' W 076°13'4 7.6
2017-Nov-16 21:30N 39°22' W 076°09'612.2
2017-Nov-16 21:00N 39°25' W 076°02'612.3
2017-Nov-16 20:30N 39°29' W 075°57'4 7.8
2017-Nov-16 20:00N 39°31' W 075°53'3 5.5
2017-Nov-16 19:30N 39°32' W 075°49'4 7.9
2017-Nov-16 19:01N 39°32' W 075°44'510.2
2017-Nov-16 18:31N 39°33' W 075°37'4 7.7
2017-Nov-16 18:00N 39°32' W 075°33'611.1
2017-Nov-16 17:31N 39°27' W 075°33'714.3
2017-Nov-16 17:01N 39°22' W 075°27'714.8
2017-Nov-16 16:31N 39°16' W 075°21'715.0
2017-Nov-16 16:01N 39°10' W 075°15'815.0
2017-Nov-16 15:31N 39°03' W 075°10'814.9
2017-Nov-16 15:00N 38°56' W 075°06'612.0
2017-Nov-16 14:30N 38°51' W 075°03'4 7.8
2017-Nov-16 13:59N 38°47' W 075°02'4 7.8
2017-Nov-16 13:30N 38°48' W 074°57'4 8.4
2017-Nov-16 13:00N 38°48' W 074°52'4 8.3
2017-Nov-16 12:30N 38°48' W 074°46'4 8.5
2017-Nov-16 12:00N 38°48' W 074°41'4 8.7
2017-Nov-16 11:30N 38°49' W 074°35'7 8.9
2017-Nov-16 10:41N 38°50' W 074°26'2 9.0
2017-Nov-16 10:26N 38°50' W 074°23'6 6.2
2017-Nov-16 09:24N 38°54' W 074°16'3213.4
2017-Nov-16 07:00N 39°24' W 074°02'816.1
2017-Nov-16 06:30N 39°31' W 073°58'816.1
2017-Nov-16 06:00N 39°39' W 073°55'816.2
2017-Nov-16 05:30N 39°47' W 073°51'815.9
2017-Nov-16 04:59N 39°55' W 073°50'2312.6
2017-Nov-16 03:11N 40°17' W 073°49'2 9.9
2017-Nov-16 02:59N 40°19' W 073°49'5 9.9
2017-Nov-16 02:30N 40°24' W 073°49'4 7.4
2017-Nov-16 02:00N 40°28' W 073°50'510.6
2017-Nov-16 01:30N 40°30' W 073°57'613.0
2017-Nov-16 01:00N 40°35' W 074°02'5 9.7
2017-Nov-16 00:30N 40°39' W 074°05'3 5.7
2017-Nov-16 00:00N 40°39' W 074°09'2 4.7
2017-Nov-15 23:30N 40°41' W 074°08'1 1.7
2017-Nov-15 22:59N 40°42' W 074°09'0 0.0
2017-Nov-15 22:29N 40°42' W 074°09'0 0.0
2017-Nov-15 21:59N 40°42' W 074°09'0 0.0
2017-Nov-15 21:29N 40°42' W 074°09'0 0.0
2017-Nov-15 20:59N 40°42' W 074°09'0 0.0
2017-Nov-15 20:29N 40°42' W 074°09'0 0.0
2017-Nov-15 19:59N 40°42' W 074°09'0 0.0
2017-Nov-15 19:29N 40°42' W 074°09'0 0.0
2017-Nov-15 18:59N 40°42' W 074°09'0 0.0
2017-Nov-15 18:29N 40°42' W 074°09'0 0.0
2017-Nov-15 17:59N 40°42' W 074°09'0 0.0
2017-Nov-15 17:29N 40°42' W 074°09'0 0.0
2017-Nov-15 16:59N 40°42' W 074°09'0 0.0
2017-Nov-15 16:29N 40°42' W 074°09'0 0.0
2017-Nov-15 15:59N 40°42' W 074°09'0 0.0
2017-Nov-15 15:29N 40°42' W 074°09'0 0.0
2017-Nov-15 14:56N 40°42' W 074°09'0 0.0
2017-Nov-15 14:29N 40°42' W 074°09'0 0.0
2017-Nov-15 13:59N 40°42' W 074°09'0 0.0
2017-Nov-15 13:29N 40°42' W 074°09'0 0.0
2017-Nov-15 12:59N 40°42' W 074°09'0 0.0
2017-Nov-15 12:29N 40°42' W 074°09'0 0.0
2017-Nov-15 11:59N 40°42' W 074°09'0 0.0
2017-Nov-15 11:31N 40°42' W 074°09'0 0.9
2017-Nov-15 10:59N 40°41' W 074°08'0 0.0
2017-Nov-15 10:29N 40°41' W 074°08'0 0.0
2017-Nov-15 09:59N 40°41' W 074°08'0 0.0
2017-Nov-15 09:29N 40°41' W 074°08'0 0.0
2017-Nov-15 08:59N 40°41' W 074°08'0 0.0
2017-Nov-15 08:29N 40°41' W 074°08'0 0.0
2017-Nov-15 07:59N 40°41' W 074°08'0 0.0
2017-Nov-15 07:29N 40°41' W 074°08'0 0.0
2017-Nov-15 06:59N 40°41' W 074°08'0 0.0
2017-Nov-15 06:29N 40°41' W 074°08'0 0.0
2017-Nov-15 05:59N 40°41' W 074°08'0 0.0
2017-Nov-15 05:29N 40°41' W 074°08'0 0.0
2017-Nov-15 04:59N 40°41' W 074°08'0 0.0
2017-Nov-15 04:29N 40°41' W 074°08'0 0.0
2017-Nov-15 03:59N 40°41' W 074°08'0 0.0
2017-Nov-15 03:29N 40°41' W 074°08'0 0.0
2017-Nov-15 02:59N 40°41' W 074°08'0 0.0
2017-Nov-15 02:29N 40°41' W 074°08'0 0.0
2017-Nov-15 01:59N 40°41' W 074°08'0 0.0
2017-Nov-15 01:29N 40°41' W 074°08'0 0.0
2017-Nov-15 00:59N 40°41' W 074°08'0 0.0
2017-Nov-15 00:29N 40°41' W 074°08'0 0.0
2017-Nov-14 23:59N 40°41' W 074°08'0 0.0
2017-Nov-14 23:29N 40°41' W 074°08'0 0.0
2017-Nov-14 22:59N 40°41' W 074°08'0 0.0
2017-Nov-14 22:29N 40°41' W 074°08'0 0.0
2017-Nov-14 21:59N 40°41' W 074°08'0 0.0
2017-Nov-14 21:29N 40°41' W 074°08'0 0.0
2017-Nov-14 20:59N 40°41' W 074°08'0 0.0
2017-Nov-14 20:29N 40°41' W 074°08'0 0.0
2017-Nov-14 19:59N 40°41' W 074°08'0 0.0
2017-Nov-14 19:29N 40°41' W 074°08'0 0.0
2017-Nov-14 18:59N 40°41' W 074°08'0 0.0
2017-Nov-14 18:29N 40°41' W 074°08'0 0.0
2017-Nov-14 17:59N 40°41' W 074°08'0 0.0
2017-Nov-14 17:29N 40°41' W 074°08'0 0.0
2017-Nov-14 16:59N 40°41' W 074°08'0 0.0
2017-Nov-14 16:29N 40°41' W 074°08'0 0.0
2017-Nov-14 15:59N 40°41' W 074°08'0 0.0
2017-Nov-14 15:29N 40°41' W 074°08'0 0.0
2017-Nov-14 14:59N 40°41' W 074°08'0 0.0
2017-Nov-14 14:29N 40°41' W 074°08'0 0.0
2017-Nov-14 13:59N 40°41' W 074°08'0 0.0
2017-Nov-14 13:29N 40°41' W 074°08'0 0.0
2017-Nov-14 12:59N 40°41' W 074°08'0 0.0
2017-Nov-14 12:29N 40°41' W 074°08'0 0.0
2017-Nov-14 11:59N 40°41' W 074°08'0 0.0
2017-Nov-14 11:29N 40°41' W 074°08'0 0.0
2017-Nov-14 11:00N 40°41' W 074°08'2 3.3
2017-Nov-14 10:30N 40°40' W 074°08'2 4.1
2017-Nov-14 10:00N 40°39' W 074°06'3 5.7
2017-Nov-14 09:30N 40°37' W 074°03'612.5
2017-Nov-14 09:00N 40°31' W 074°00'611.9
2017-Nov-14 08:30N 40°29' W 073°53'5 8.9
2017-Nov-14 08:00N 40°27' W 073°48'3 7.1
2017-Nov-14 07:30N 40°27' W 073°43'3 7.0
2017-Nov-14 07:00N 40°27' W 073°39'4 7.1
2017-Nov-14 06:30N 40°28' W 073°34'11 8.9
2017-Nov-14 05:14N 40°29' W 073°19'3 9.1
2017-Nov-14 04:54N 40°29' W 073°15'4 9.1
2017-Nov-14 04:28N 40°29' W 073°10'12 5.3
2017-Nov-14 02:10N 40°29' W 072°54'  
Track history (hours):
 
Tides and Currents Weather Stations Pressure Air Temp Water Temp Dewpoint Dewpoint Depression Visibility Wind Speed Wind Dir Waves Ship Positions

Cassiopeia Leader

Last reported at 2017-Nov-20 00:30 UTC. Time now 2017-Dec-11 11:19 UTC.
Position N 30°21' W 081°05'.
Warning: this ship's position is 21 days out of date.

Length 200 m; draft 8.8 m.

Type: Cargo ship. MMSI: 431013000.

Date/timePositionNaut miles runAvg speedWind from/ knotsBaromVisibWave heightAir tempDewpointWater temp
2017-Nov-20 00:30N 30°21' W 081°05'5 9.3
2017-Nov-20 00:00N 30°21' W 080°59'5 9.5
2017-Nov-19 23:30N 30°20' W 080°54'5 9.3
2017-Nov-19 23:00N 30°21' W 080°49'1 1.9
2017-Nov-19 22:30N 30°21' W 080°48'0 0.8
2017-Nov-19 22:00N 30°22' W 080°47'46113.1
2017-Nov-18 10:56N 36°49' W 075°46'4 9.3
2017-Nov-18 10:30N 36°51' W 075°51'5 9.1
2017-Nov-18 10:00N 36°54' W 075°55'5 9.3
2017-Nov-18 09:30N 36°57' W 075°60'612.3
2017-Nov-18 09:01N 37°02' W 076°04'917.9
2017-Nov-18 08:29N 37°10' W 076°09'9116.9
2017-Nov-18 03:07N 38°40' W 076°25'318.6
2017-Nov-18 02:58N 38°43' W 076°26'818.2
2017-Nov-18 02:30N 38°51' W 076°24'816.4
2017-Nov-18 02:00N 38°59' W 076°23'713.9
2017-Nov-18 01:30N 39°06' W 076°24'611.7
2017-Nov-18 01:01N 39°11' W 076°27'5 9.6
2017-Nov-18 00:31N 39°14' W 076°32'1 2.5
2017-Nov-17 23:58N 39°15' W 076°32'0 0.0
2017-Nov-17 23:28N 39°15' W 076°32'0 0.0
2017-Nov-17 22:58N 39°15' W 076°32'0 0.0
2017-Nov-17 22:28N 39°15' W 076°32'0 0.0
2017-Nov-17 21:58N 39°15' W 076°32'0 0.0
2017-Nov-17 21:28N 39°15' W 076°32'0 0.0
2017-Nov-17 20:58N 39°15' W 076°32'0 0.0
2017-Nov-17 20:28N 39°15' W 076°32'0 0.0
2017-Nov-17 19:58N 39°15' W 076°32'0 0.0
2017-Nov-17 19:25N 39°15' W 076°32'0 0.0
2017-Nov-17 18:58N 39°15' W 076°32'0 0.0
2017-Nov-17 18:28N 39°15' W 076°32'0 0.0
2017-Nov-17 17:58N 39°15' W 076°32'0 0.0
2017-Nov-17 17:28N 39°15' W 076°32'0 0.0
2017-Nov-17 16:58N 39°15' W 076°32'0 0.0
2017-Nov-17 16:28N 39°15' W 076°32'0 0.0
2017-Nov-17 15:58N 39°15' W 076°32'0 0.0
2017-Nov-17 15:28N 39°15' W 076°32'0 0.0
2017-Nov-17 14:58N 39°15' W 076°32'0 0.0
2017-Nov-17 14:28N 39°15' W 076°32'0 0.0
2017-Nov-17 13:58N 39°15' W 076°32'0 0.0
2017-Nov-17 13:28N 39°15' W 076°32'0 0.0
2017-Nov-17 12:58N 39°15' W 076°32'0 0.0
2017-Nov-17 12:28N 39°15' W 076°32'0 0.0
2017-Nov-17 11:58N 39°15' W 076°32'0 0.0
2017-Nov-17 11:28N 39°15' W 076°32'0 0.0
2017-Nov-17 10:58N 39°15' W 076°32'0 0.0
2017-Nov-17 10:28N 39°15' W 076°32'0 0.0
2017-Nov-17 09:58N 39°15' W 076°32'0 0.0
2017-Nov-17 09:28N 39°15' W 076°32'0 0.0
2017-Nov-17 08:58N 39°15' W 076°32'0 0.0
2017-Nov-17 08:28N 39°15' W 076°32'0 0.0
2017-Nov-17 07:58N 39°15' W 076°32'0 0.0
2017-Nov-17 07:28N 39°15' W 076°32'0 0.0
2017-Nov-17 06:58N 39°15' W 076°32'0 0.0
2017-Nov-17 06:28N 39°15' W 076°32'0 0.0
2017-Nov-17 05:58N 39°15' W 076°32'0 0.0
2017-Nov-17 05:28N 39°15' W 076°32'0 0.0
2017-Nov-17 04:58N 39°15' W 076°32'0 0.0
2017-Nov-17 04:28N 39°15' W 076°32'0 0.0
2017-Nov-17 03:58N 39°15' W 076°32'0 0.0
2017-Nov-17 03:28N 39°15' W 076°32'0 0.0
2017-Nov-17 02:58N 39°15' W 076°32'0 0.0
2017-Nov-17 02:25N 39°15' W 076°32'0 0.0
2017-Nov-17 01:31N 39°15' W 076°32'0 0.0
2017-Nov-17 01:10N 39°15' W 076°32'0 0.7
2017-Nov-17 01:00N 39°15' W 076°32'2 4.8
2017-Nov-17 00:31N 39°13' W 076°31'4 7.5
2017-Nov-17 00:00N 39°11' W 076°27'510.4
2017-Nov-16 23:30N 39°09' W 076°21'3 6.9
2017-Nov-16 23:00N 39°11' W 076°17'4 8.2
2017-Nov-16 22:30N 39°14' W 076°14'5 9.8
2017-Nov-16 22:01N 39°19' W 076°13'4 7.6
2017-Nov-16 21:30N 39°22' W 076°09'612.2
2017-Nov-16 21:00N 39°25' W 076°02'612.3
2017-Nov-16 20:30N 39°29' W 075°57'4 7.8
2017-Nov-16 20:00N 39°31' W 075°53'3 5.5
2017-Nov-16 19:30N 39°32' W 075°49'4 7.9
2017-Nov-16 19:01N 39°32' W 075°44'510.2
2017-Nov-16 18:31N 39°33' W 075°37'4 7.7
2017-Nov-16 18:00N 39°32' W 075°33'611.1
2017-Nov-16 17:31N 39°27' W 075°33'714.3
2017-Nov-16 17:01N 39°22' W 075°27'714.8
2017-Nov-16 16:31N 39°16' W 075°21'715.0
2017-Nov-16 16:01N 39°10' W 075°15'815.0
2017-Nov-16 15:31N 39°03' W 075°10'814.9
2017-Nov-16 15:00N 38°56' W 075°06'612.0
2017-Nov-16 14:30N 38°51' W 075°03'4 7.8
2017-Nov-16 13:59N 38°47' W 075°02'4 7.8
2017-Nov-16 13:30N 38°48' W 074°57'4 8.4
2017-Nov-16 13:00N 38°48' W 074°52'4 8.3
2017-Nov-16 12:30N 38°48' W 074°46'4 8.5
2017-Nov-16 12:00N 38°48' W 074°41'4 8.7
2017-Nov-16 11:30N 38°49' W 074°35'7 8.9
2017-Nov-16 10:41N 38°50' W 074°26'2 9.0
2017-Nov-16 10:26N 38°50' W 074°23'6 6.2
2017-Nov-16 09:24N 38°54' W 074°16'3213.4
2017-Nov-16 07:00N 39°24' W 074°02'816.1
2017-Nov-16 06:30N 39°31' W 073°58'816.1
2017-Nov-16 06:00N 39°39' W 073°55'816.2
2017-Nov-16 05:30N 39°47' W 073°51'815.9
2017-Nov-16 04:59N 39°55' W 073°50'2312.6
2017-Nov-16 03:11N 40°17' W 073°49'2 9.9
2017-Nov-16 02:59N 40°19' W 073°49'5 9.9
2017-Nov-16 02:30N 40°24' W 073°49'4 7.4
2017-Nov-16 02:00N 40°28' W 073°50'510.6
2017-Nov-16 01:30N 40°30' W 073°57'613.0
2017-Nov-16 01:00N 40°35' W 074°02'5 9.7
2017-Nov-16 00:30N 40°39' W 074°05'3 5.7
2017-Nov-16 00:00N 40°39' W 074°09'2 4.7
2017-Nov-15 23:30N 40°41' W 074°08'1 1.7
2017-Nov-15 22:59N 40°42' W 074°09'0 0.0
2017-Nov-15 22:29N 40°42' W 074°09'0 0.0
2017-Nov-15 21:59N 40°42' W 074°09'0 0.0
2017-Nov-15 21:29N 40°42' W 074°09'0 0.0
2017-Nov-15 20:59N 40°42' W 074°09'0 0.0
2017-Nov-15 20:29N 40°42' W 074°09'0 0.0
2017-Nov-15 19:59N 40°42' W 074°09'0 0.0
2017-Nov-15 19:29N 40°42' W 074°09'0 0.0
2017-Nov-15 18:59N 40°42' W 074°09'0 0.0
2017-Nov-15 18:29N 40°42' W 074°09'0 0.0
2017-Nov-15 17:59N 40°42' W 074°09'0 0.0
2017-Nov-15 17:29N 40°42' W 074°09'0 0.0
2017-Nov-15 16:59N 40°42' W 074°09'0 0.0
2017-Nov-15 16:29N 40°42' W 074°09'0 0.0
2017-Nov-15 15:59N 40°42' W 074°09'0 0.0
2017-Nov-15 15:29N 40°42' W 074°09'0 0.0
2017-Nov-15 14:56N 40°42' W 074°09'0 0.0
2017-Nov-15 14:29N 40°42' W 074°09'0 0.0
2017-Nov-15 13:59N 40°42' W 074°09'0 0.0
2017-Nov-15 13:29N 40°42' W 074°09'0 0.0
2017-Nov-15 12:59N 40°42' W 074°09'0 0.0
2017-Nov-15 12:29N 40°42' W 074°09'0 0.0
2017-Nov-15 11:59N 40°42' W 074°09'0 0.0
2017-Nov-15 11:31N 40°42' W 074°09'0 0.9
2017-Nov-15 10:59N 40°41' W 074°08'0 0.0
2017-Nov-15 10:29N 40°41' W 074°08'0 0.0
2017-Nov-15 09:59N 40°41' W 074°08'0 0.0
2017-Nov-15 09:29N 40°41' W 074°08'0 0.0
2017-Nov-15 08:59N 40°41' W 074°08'0 0.0
2017-Nov-15 08:29N 40°41' W 074°08'0 0.0
2017-Nov-15 07:59N 40°41' W 074°08'0 0.0
2017-Nov-15 07:29N 40°41' W 074°08'0 0.0
2017-Nov-15 06:59N 40°41' W 074°08'0 0.0
2017-Nov-15 06:29N 40°41' W 074°08'0 0.0
2017-Nov-15 05:59N 40°41' W 074°08'0 0.0
2017-Nov-15 05:29N 40°41' W 074°08'0 0.0
2017-Nov-15 04:59N 40°41' W 074°08'0 0.0
2017-Nov-15 04:29N 40°41' W 074°08'0 0.0
2017-Nov-15 03:59N 40°41' W 074°08'0 0.0
2017-Nov-15 03:29N 40°41' W 074°08'0 0.0
2017-Nov-15 02:59N 40°41' W 074°08'0 0.0
2017-Nov-15 02:29N 40°41' W 074°08'0 0.0
2017-Nov-15 01:59N 40°41' W 074°08'0 0.0
2017-Nov-15 01:29N 40°41' W 074°08'0 0.0
2017-Nov-15 00:59N 40°41' W 074°08'0 0.0
2017-Nov-15 00:29N 40°41' W 074°08'0 0.0
2017-Nov-14 23:59N 40°41' W 074°08'0 0.0
2017-Nov-14 23:29N 40°41' W 074°08'0 0.0
2017-Nov-14 22:59N 40°41' W 074°08'0 0.0
2017-Nov-14 22:29N 40°41' W 074°08'0 0.0
2017-Nov-14 21:59N 40°41' W 074°08'0 0.0
2017-Nov-14 21:29N 40°41' W 074°08'0 0.0
2017-Nov-14 20:59N 40°41' W 074°08'0 0.0
2017-Nov-14 20:29N 40°41' W 074°08'0 0.0
2017-Nov-14 19:59N 40°41' W 074°08'0 0.0
2017-Nov-14 19:29N 40°41' W 074°08'0 0.0
2017-Nov-14 18:59N 40°41' W 074°08'0 0.0
2017-Nov-14 18:29N 40°41' W 074°08'0 0.0
2017-Nov-14 17:59N 40°41' W 074°08'0 0.0
2017-Nov-14 17:29N 40°41' W 074°08'0 0.0
2017-Nov-14 16:59N 40°41' W 074°08'0 0.0
2017-Nov-14 16:29N 40°41' W 074°08'0 0.0
2017-Nov-14 15:59N 40°41' W 074°08'0 0.0
2017-Nov-14 15:29N 40°41' W 074°08'0 0.0
2017-Nov-14 14:59N 40°41' W 074°08'0 0.0
2017-Nov-14 14:29N 40°41' W 074°08'0 0.0
2017-Nov-14 13:59N 40°41' W 074°08'0 0.0
2017-Nov-14 13:29N 40°41' W 074°08'0 0.0
2017-Nov-14 12:59N 40°41' W 074°08'0 0.0
2017-Nov-14 12:29N 40°41' W 074°08'0 0.0
2017-Nov-14 11:59N 40°41' W 074°08'0 0.0
2017-Nov-14 11:29N 40°41' W 074°08'0 0.0
2017-Nov-14 11:00N 40°41' W 074°08'2 3.3
2017-Nov-14 10:30N 40°40' W 074°08'2 4.1
2017-Nov-14 10:00N 40°39' W 074°06'3 5.7
2017-Nov-14 09:30N 40°37' W 074°03'612.5
2017-Nov-14 09:00N 40°31' W 074°00'611.9
2017-Nov-14 08:30N 40°29' W 073°53'5 8.9
2017-Nov-14 08:00N 40°27' W 073°48'3 7.1
2017-Nov-14 07:30N 40°27' W 073°43'3 7.0
2017-Nov-14 07:00N 40°27' W 073°39'4 7.1
2017-Nov-14 06:30N 40°28' W 073°34'11 8.9
2017-Nov-14 05:14N 40°29' W 073°19'3 9.1
2017-Nov-14 04:54N 40°29' W 073°15'4 9.1
2017-Nov-14 04:28N 40°29' W 073°10'12 5.3
2017-Nov-14 02:10N 40°29' W 072°54'  

Dump ship's entire track history